Time;durP1;ratioP1;P1;durP2;ratioP2;P2;SDS_P1;SDS_P2;PMS_P1;PMS_P2;Temp;Humidity;BMP_temperature;BMP_pressure;BME280_temperature;BME280_humidity;BME280_pressure;Samples;Min_cycle;Max_cycle;Signal;HPM_P1;HPM_P2
2021/12/09 00:01:49;;;;;;;13.35;6.15;;;4.50;99.90;;;;;;6217591;23;20441;-93
2021/12/09 00:04:24;;;;;;;9.55;5.07;;;4.40;99.90;;;;;;6190747;23;20028;-92
2021/12/09 00:06:55;;;;;;;13.38;4.47;;;4.50;99.90;;;;;;6191244;23;20020;-93
2021/12/09 00:09:28;;;;;;;14.55;4.65;;;4.40;99.90;;;;;;6191778;23;20063;-94
2021/12/09 00:11:56;;;;;;;11.23;4.38;;;4.40;99.90;;;;;;6167158;23;20017;-92
2021/12/09 00:14:29;;;;;;;9.35;4.88;;;4.50;99.90;;;;;;6167759;23;20040;-93
2021/12/09 00:17:07;;;;;;;14.45;5.60;;;4.40;99.90;;;;;;6167495;23;20017;-94
2021/12/09 00:19:39;;;;;;;10.70;5.72;;;4.30;99.90;;;;;;6191237;23;20025;-93
2021/12/09 00:22:12;;;;;;;12.30;5.00;;;4.40;99.90;;;;;;6167336;23;20028;-93
2021/12/09 00:24:40;;;;;;;13.93;5.60;;;4.50;99.90;;;;;;6191955;23;20016;-93
2021/12/09 00:27:12;;;;;;;13.65;5.45;;;4.30;99.90;;;;;;6167170;23;20074;-93
2021/12/09 00:29:40;;;;;;;7.20;4.07;;;4.40;99.90;;;;;;6190574;23;20021;-93
2021/12/09 00:32:08;;;;;;;9.80;5.15;;;4.50;99.90;;;;;;6166629;23;20020;-93
2021/12/09 00:34:38;;;;;;;17.42;5.93;;;4.40;99.90;;;;;;6191098;23;20433;-93
2021/12/09 00:37:23;;;;;;;14.32;4.38;;;4.40;99.90;;;;;;6167188;23;20056;-94
2021/12/09 00:39:51;;;;;;;11.48;4.93;;;4.40;99.90;;;;;;6166580;23;20453;-92
2021/12/09 00:42:22;;;;;;;15.05;4.50;;;4.50;99.90;;;;;;6193412;23;20025;-94
2021/12/09 00:44:50;;;;;;;11.30;5.72;;;4.50;99.90;;;;;;6192436;23;20025;-93
2021/12/09 00:47:22;;;;;;;11.05;5.80;;;4.40;99.90;;;;;;6169605;23;20024;-94
2021/12/09 00:49:51;;;;;;;12.63;4.43;;;4.40;99.90;;;;;;6192675;23;20021;-93
2021/12/09 00:52:19;;;;;;;10.45;6.05;;;4.50;99.90;;;;;;6192880;23;20440;-93
2021/12/09 00:54:49;;;;;;;13.73;4.72;;;4.50;99.90;;;;;;6169723;23;20075;-95
2021/12/09 00:57:16;;;;;;;12.60;4.47;;;4.40;99.90;;;;;;6167346;23;20023;-92
2021/12/09 00:59:44;;;;;;;15.10;6.07;;;4.40;99.90;;;;;;6168272;23;20044;-93
2021/12/09 01:02:12;;;;;;;13.02;5.25;;;4.40;99.90;;;;;;6193753;23;20044;-94
2021/12/09 01:04:40;;;;;;;11.45;5.40;;;4.30;99.90;;;;;;6168003;23;20044;-95
2021/12/09 01:07:11;;;;;;;13.70;5.22;;;4.40;99.90;;;;;;6192855;23;20021;-94
2021/12/09 01:09:39;;;;;;;8.88;4.63;;;4.40;99.90;;;;;;6168058;23;20104;-94
2021/12/09 01:12:07;;;;;;;7.95;5.13;;;4.40;99.90;;;;;;6219104;23;20463;-94
2021/12/09 01:14:38;;;;;;;12.68;5.18;;;4.40;99.90;;;;;;6193035;23;20020;-94
2021/12/09 01:17:08;;;;;;;10.25;5.88;;;4.40;99.90;;;;;;6193594;23;20021;-94
2021/12/09 01:19:39;;;;;;;18.52;6.32;;;4.50;99.90;;;;;;6193450;23;20020;-94
2021/12/09 01:22:06;;;;;;;10.07;4.03;;;4.40;99.90;;;;;;6168302;23;20016;-93
2021/12/09 01:24:34;;;;;;;13.60;5.97;;;4.50;99.90;;;;;;6219416;23;20445;-93
2021/12/09 01:27:04;;;;;;;11.30;4.53;;;4.40;99.90;;;;;;6193359;23;20025;-93
2021/12/09 01:29:36;;;;;;;15.05;4.95;;;4.40;99.90;;;;;;6169479;23;20012;-92
2021/12/09 01:32:07;;;;;;;16.50;5.75;;;4.40;99.90;;;;;;6168544;23;20020;-93
2021/12/09 01:34:36;;;;;;;13.10;5.68;;;4.40;99.90;;;;;;6192947;23;20368;-93
2021/12/09 01:37:07;;;;;;;13.23;5.38;;;4.40;99.90;;;;;;6193077;23;20456;-94
2021/12/09 01:39:35;;;;;;;11.35;5.03;;;4.50;99.90;;;;;;6168739;23;20020;-93
2021/12/09 01:42:06;;;;;;;12.55;5.15;;;4.50;99.90;;;;;;6169496;23;20029;-94
2021/12/09 01:44:35;;;;;;;13.35;5.82;;;4.50;99.90;;;;;;6220313;23;20079;-93
2021/12/09 01:47:03;;;;;;;16.08;5.20;;;4.40;99.90;;;;;;6193151;23;20020;-94
2021/12/09 01:49:30;;;;;;;12.50;6.30;;;4.30;99.90;;;;;;6168313;23;20020;-95
2021/12/09 01:51:57;;;;;;;8.52;4.72;;;4.40;99.90;;;;;;6167633;23;20027;-94
2021/12/09 01:54:25;;;;;;;10.45;4.90;;;4.30;99.90;;;;;;6167190;23;20108;-93
2021/12/09 01:56:55;;;;;;;18.00;6.22;;;4.40;99.90;;;;;;6192066;23;20017;-94
2021/12/09 01:59:25;;;;;;;12.10;5.72;;;4.40;99.90;;;;;;6168413;23;20028;-93
2021/12/09 02:01:54;;;;;;;7.45;4.78;;;4.40;99.90;;;;;;6167524;23;20020;-94
2021/12/09 02:04:24;;;;;;;12.30;5.05;;;4.40;99.90;;;;;;6167907;23;20025;-93
2021/12/09 02:06:54;;;;;;;14.95;5.75;;;4.40;99.90;;;;;;6191753;23;20099;-92
2021/12/09 02:09:24;;;;;;;12.82;4.05;;;4.40;99.90;;;;;;6192787;23;20391;-92
2021/12/09 02:11:51;;;;;;;9.57;5.10;;;4.50;99.90;;;;;;6191353;23;20080;-92
2021/12/09 02:14:18;;;;;;;13.88;5.90;;;4.50;99.90;;;;;;6167024;23;20095;-92
2021/12/09 02:17:07;;;;;;;16.65;4.88;;;4.50;99.90;;;;;;6169510;23;20024;-93
2021/12/09 02:20:18;;;;;;;15.55;5.28;;;4.40;99.90;;;;;;6191878;23;20047;-96
2021/12/09 02:24:03;;;;;;;;;;;;;;;;;;;;;
2021/12/09 02:27:40;;;;;;;11.82;5.90;;;4.50;99.90;;;;;;6096975;23;20022;-93
2021/12/09 02:30:53;;;;;;;19.20;5.45;;;4.50;99.90;;;;;;6071792;23;20046;-94
2021/12/09 02:34:24;;;;;;;12.40;4.68;;;4.40;99.90;;;;;;6053948;23;20025;-96
2021/12/09 02:54:58;;;;;;;;;;;;;;;;;;;;;
2021/12/09 03:37:22;;;;;;;14.38;4.78;;;4.30;99.90;;;;;;6214870;23;20047;-92
2021/12/09 03:41:44;;;;;;;10.30;4.22;;;4.20;99.90;;;;;;6198980;23;20340;-93
2021/12/09 03:44:34;;;;;;;;;;;;;;;;;;;;;
2021/12/09 03:48:17;;;;;;;12.48;4.68;;;4.30;99.90;;;;;;6221221;23;20367;-95
2021/12/09 03:51:42;;;;;;;15.35;6.00;;;4.30;99.90;;;;;;6213627;23;20020;-95
2021/12/09 03:55:02;;;;;;;16.45;6.35;;;4.20;99.90;;;;;;6210269;23;20016;-95
2021/12/09 04:01:54;;;;;;;17.15;6.05;;;4.20;99.90;;;;;;6125960;23;20024;-93
2021/12/09 04:05:17;;;;;;;13.63;4.65;;;4.10;99.90;;;;;;6200017;23;20027;-94
2021/12/09 04:08:21;;;;;;;15.48;5.00;;;4.20;99.90;;;;;;6219568;23;20024;-94
2021/12/09 04:21:45;;;;;;;12.57;4.32;;;4.30;99.90;;;;;;6264379;22;20074;-93
2021/12/09 04:25:09;;;;;;;12.57;4.53;;;4.20;99.90;;;;;;6204402;23;20026;-95
2021/12/09 04:32:45;;;;;;;17.52;6.18;;;4.20;99.90;;;;;;6250061;22;20087;-96
2021/12/09 04:40:36;;;;;;;17.35;5.15;;;4.10;99.90;;;;;;6217180;23;20092;-94
2021/12/09 04:44:29;;;;;;;11.75;4.43;;;4.20;99.90;;;;;;6141663;23;20023;-95
2021/12/09 04:48:12;;;;;;;13.02;5.43;;;4.20;99.90;;;;;;6190914;23;20028;-94
2021/12/09 04:58:02;;;;;;;14.15;4.68;;;4.20;99.90;;;;;;6279069;22;20053;-95
2021/12/09 05:09:59;;;;;;;14.40;4.88;;;3.90;99.90;;;;;;5922167;23;20046;-92
2021/12/09 05:12:33;;;;;;;11.10;3.83;;;3.90;99.90;;;;;;5988734;23;20117;-93
2021/12/09 05:15:16;;;;;;;17.90;4.70;;;4.10;99.90;;;;;;6016434;23;20020;-93
2021/12/09 05:18:14;;;;;;;19.08;5.07;;;3.90;99.90;;;;;;6017618;23;20024;-95
2021/12/09 05:21:15;;;;;;;17.60;5.07;;;3.90;99.90;;;;;;6013263;23;20114;-94
2021/12/09 14:43:11;;;;;;;31.80;13.00;;;5.70;99.90;;;;;;6284634;22;20351;-93
2021/12/09 14:46:11;;;;;;;23.63;10.75;;;5.70;99.90;;;;;;6258254;22;20023;-91
2021/12/09 14:49:25;;;;;;;26.38;12.20;;;5.60;99.90;;;;;;6257092;22;20019;-93
2021/12/09 14:52:45;;;;;;;27.52;11.75;;;5.60;99.90;;;;;;6270621;22;20023;-93
2021/12/09 14:59:56;;;;;;;27.00;11.38;;;5.60;99.90;;;;;;6282379;22;20450;-91
2021/12/09 15:03:11;;;;;;;22.73;11.45;;;5.60;99.90;;;;;;6202606;23;20044;-93
2021/12/09 15:06:42;;;;;;;17.13;9.45;;;5.60;99.90;;;;;;6234643;23;20355;-93
2021/12/09 15:26:38;;;;;;;3.28;1.60;;;5.60;99.90;;;;;;6270056;22;20108;-93
2021/12/09 16:38:46;;;;;;;11.90;5.05;;;5.70;99.90;;;;;;6253809;22;20397;-91
2021/12/09 16:41:21;;;;;;;9.30;3.17;;;5.70;99.90;;;;;;6232985;23;20052;-90
2021/12/09 16:43:48;;;;;;;5.43;3.03;;;5.70;99.90;;;;;;6222311;23;20016;-91
2021/12/09 16:46:15;;;;;;;11.13;3.83;;;5.70;99.90;;;;;;6221032;23;20107;-91
2021/12/09 16:48:48;;;;;;;7.68;3.55;;;5.70;99.90;;;;;;6222866;23;20067;-93
2021/12/09 16:54:27;;;;;;;8.13;4.60;;;5.70;99.90;;;;;;6262523;22;20030;-91
2021/12/09 16:57:09;;;;;;;9.48;4.47;;;5.70;99.90;;;;;;6252740;22;20020;-90
2021/12/09 16:59:37;;;;;;;12.18;5.40;;;5.70;99.90;;;;;;6226729;22;20024;-94
2021/12/09 17:02:13;;;;;;;22.90;9.48;;;5.60;99.90;;;;;;6221124;23;20012;-90
2021/12/09 17:04:46;;;;;;;18.80;8.25;;;5.60;99.90;;;;;;6197212;23;20016;-92
2021/12/09 17:07:13;;;;;;;21.05;10.88;;;5.60;99.90;;;;;;6246493;23;20016;-89
2021/12/09 17:09:50;;;;;;;22.95;10.63;;;5.50;99.90;;;;;;6196134;23;20012;-90
2021/12/09 17:12:19;;;;;;;30.45;12.70;;;5.50;99.90;;;;;;6221952;23;20016;-92
2021/12/09 17:15:04;;;;;;;24.08;12.15;;;5.50;99.90;;;;;;6199431;23;20111;-91
2021/12/09 17:17:32;;;;;;;18.42;9.93;;;5.50;99.90;;;;;;6220965;23;20024;-92
2021/12/09 17:20:00;;;;;;;24.15;9.60;;;5.50;99.90;;;;;;6196264;23;20024;-90
2021/12/09 17:22:27;;;;;;;16.17;8.63;;;5.40;99.90;;;;;;6248244;22;20039;-90
2021/12/09 17:24:59;;;;;;;29.27;13.93;;;5.50;99.90;;;;;;6225665;23;20047;-92
2021/12/09 17:27:30;;;;;;;26.70;13.10;;;5.50;99.90;;;;;;6251774;23;20071;-89
2021/12/09 17:30:07;;;;;;;26.75;12.88;;;5.50;99.90;;;;;;6229647;23;20071;-91
2021/12/09 18:31:16;;;;;;;6.43;1.92;;;5.50;99.90;;;;;;6245693;22;20107;-91
2021/12/09 18:35:49;;;;;;;7.07;1.80;;;5.60;99.90;;;;;;6243833;23;20031;-93
2021/12/09 18:38:20;;;;;;;2.00;0.90;;;5.60;99.90;;;;;;6200400;23;20024;-92
2021/12/09 20:38:15;;;;;;;11.60;3.67;;;5.70;99.90;;;;;;6278838;22;20027;-93
2021/12/09 20:41:33;;;;;;;15.13;4.43;;;5.80;99.90;;;;;;6232783;23;20016;-93
2021/12/09 20:45:18;;;;;;;14.70;4.60;;;5.70;99.90;;;;;;6188900;23;20031;-94
2021/12/09 20:48:08;;;;;;;14.57;5.70;;;5.70;99.90;;;;;;6221339;23;20471;-93
2021/12/09 20:51:37;;;;;;;12.25;5.13;;;5.60;99.90;;;;;;6225229;23;20091;-93
2021/12/09 21:03:48;;;;;;;17.13;4.78;;;5.60;99.90;;;;;;6119642;23;20013;-93
2021/12/09 21:18:15;;;;;;;10.57;3.50;;;5.50;99.90;;;;;;6263733;22;20027;-93
2021/12/09 21:37:56;;;;;;;18.40;5.88;;;5.50;99.90;;;;;;6180664;22;20027;-94
2021/12/09 21:40:58;;;;;;;17.30;6.20;;;5.50;99.90;;;;;;6220489;23;20048;-94
2021/12/09 21:43:30;;;;;;;16.67;5.82;;;5.50;99.90;;;;;;6205289;23;20026;-94
2021/12/09 21:46:02;;;;;;;15.20;5.00;;;5.50;99.90;;;;;;6232171;23;20022;-94
2021/12/09 21:48:29;;;;;;;13.77;5.63;;;5.40;99.90;;;;;;6253880;22;20440;-91
2021/12/09 21:50:59;;;;;;;19.98;6.20;;;5.40;99.90;;;;;;6254961;22;20020;-95
2021/12/09 21:53:28;;;;;;;24.20;6.72;;;5.30;99.90;;;;;;6209729;23;20035;-93
2021/12/09 21:55:59;;;;;;;16.60;7.40;;;5.30;99.90;;;;;;6234807;23;20012;-91
2021/12/09 21:58:40;;;;;;;15.60;6.93;;;5.30;99.90;;;;;;6258787;23;20158;-91
2021/12/09 22:01:40;;;;;;;14.20;5.00;;;5.20;99.90;;;;;;6220628;23;20024;-92
2021/12/09 22:05:11;;;;;;;13.77;5.72;;;5.20;99.90;;;;;;6207278;23;20095;-92
2021/12/09 22:08:47;;;;;;;;;;;;;;;;;;;;;
2021/12/09 22:12:55;;;;;;;15.75;6.68;;;5.00;99.90;;;;;;6132728;23;20028;-92
2021/12/09 22:16:29;;;;;;;18.73;6.15;;;5.00;99.90;;;;;;6083449;23;20083;-94
2021/12/09 22:19:48;;;;;;;13.75;5.63;;;5.00;99.90;;;;;;6109368;23;20101;-92
2021/12/09 22:27:17;;;;;;;21.63;8.88;;;5.00;99.90;;;;;;6135589;23;20079;-92
2021/12/09 22:30:49;;;;;;;17.27;7.65;;;5.00;99.90;;;;;;6117816;23;20036;-93
2021/12/09 22:33:55;;;;;;;26.55;12.18;;;5.00;99.90;;;;;;6074413;23;20013;-93
2021/12/09 22:37:12;;;;;;;21.02;9.25;;;4.90;99.90;;;;;;6181753;23;20092;-91
2021/12/09 22:40:44;;;;;;;28.13;12.30;;;4.90;99.90;;;;;;6208612;23;20070;-92
2021/12/09 22:43:57;;;;;;;28.42;14.07;;;4.70;99.90;;;;;;6201409;23;20020;-93
2021/12/09 22:47:24;;;;;;;25.00;13.88;;;4.70;99.90;;;;;;6182996;23;20016;-93
2021/12/09 22:50:29;;;;;;;25.25;9.27;;;4.80;99.90;;;;;;6195901;23;20020;-91
2021/12/09 22:53:31;;;;;;;37.58;13.77;;;4.80;99.90;;;;;;6203639;23;20539;-92
2021/12/09 22:56:36;;;;;;;34.65;15.60;;;4.70;99.90;;;;;;6208223;23;20025;-93
2021/12/09 22:59:37;;;;;;;26.88;11.27;;;4.80;99.90;;;;;;6200834;23;20020;-92
2021/12/09 23:02:52;;;;;;;;;;;;;;;;;;;;;
2021/12/09 23:06:40;;;;;;;17.77;9.32;;;4.90;99.90;;;;;;6206446;23;20031;-93
2021/12/09 23:10:00;;;;;;;27.63;11.98;;;4.90;99.90;;;;;;6220343;23;20025;-93
2021/12/09 23:13:30;;;;;;;30.30;13.45;;;4.90;99.90;;;;;;6201522;23;20036;-94
2021/12/09 23:17:39;;;;;;;27.10;12.27;;;4.80;99.90;;;;;;6209181;23;20154;-92
2021/12/09 23:20:54;;;;;;;37.22;14.65;;;4.90;99.90;;;;;;6082020;23;20101;-94
2021/12/09 23:23:56;;;;;;;30.92;14.98;;;4.80;99.90;;;;;;6136404;23;20067;-92
2021/12/09 23:31:22;;;;;;;;;;;;;;;;;;;;;
2021/12/09 23:34:36;;;;;;;34.13;15.48;;;4.90;99.90;;;;;;6201627;23;20016;-93
2021/12/09 23:42:01;;;;;;;28.67;14.02;;;4.80;99.90;;;;;;6202971;23;20056;-93
2021/12/09 23:45:11;;;;;;;37.40;15.80;;;4.80;99.90;;;;;;6175454;23;20028;-92
2021/12/09 23:48:24;;;;;;;29.42;12.45;;;4.60;99.90;;;;;;6182961;23;20020;-91
2021/12/09 23:52:01;;;;;;;40.33;15.38;;;4.80;99.90;;;;;;6205085;23;20020;-93
2021/12/09 23:55:04;;;;;;;27.30;11.48;;;4.80;99.90;;;;;;6181890;23;20710;-92
2021/12/09 23:58:16;;;;;;;32.25;14.23;;;4.80;99.90;;;;;;6210322;23;20082;-94
